sensor_id;sensor_type;location;lat;lon;timestamp;P1;durP1;ratioP1;P2;durP2;ratioP2
27744;SDS011;61387;48.112;8.616;2023-03-24T00:00:03;5.20;;;3.70;;
27744;SDS011;61387;48.112;8.616;2023-03-24T00:02:35;5.13;;;3.40;;
27744;SDS011;61387;48.112;8.616;2023-03-24T00:05:02;6.33;;;3.57;;
27744;SDS011;61387;48.112;8.616;2023-03-24T00:07:29;7.13;;;3.47;;
27744;SDS011;61387;48.112;8.616;2023-03-24T00:09:58;5.90;;;3.40;;
27744;SDS011;61387;48.112;8.616;2023-03-24T00:12:24;8.90;;;4.37;;
27744;SDS011;61387;48.112;8.616;2023-03-24T00:14:50;6.60;;;3.37;;
27744;SDS011;61387;48.112;8.616;2023-03-24T00:17:18;5.57;;;3.53;;
27744;SDS011;61387;48.112;8.616;2023-03-24T00:19:49;7.20;;;3.63;;
27744;SDS011;61387;48.112;8.616;2023-03-24T00:22:15;4.47;;;3.07;;
27744;SDS011;61387;48.112;8.616;2023-03-24T00:24:40;5.63;;;3.50;;
27744;SDS011;61387;48.112;8.616;2023-03-24T00:27:10;6.20;;;3.70;;
27744;SDS011;61387;48.112;8.616;2023-03-24T00:29:37;7.27;;;3.40;;
27744;SDS011;61387;48.112;8.616;2023-03-24T00:32:04;6.03;;;3.67;;
27744;SDS011;61387;48.112;8.616;2023-03-24T00:34:30;36.60;;;8.17;;
27744;SDS011;61387;48.112;8.616;2023-03-24T00:36:58;7.87;;;3.57;;
27744;SDS011;61387;48.112;8.616;2023-03-24T00:39:23;7.00;;;3.93;;
27744;SDS011;61387;48.112;8.616;2023-03-24T00:41:49;7.30;;;3.90;;
27744;SDS011;61387;48.112;8.616;2023-03-24T00:44:15;6.30;;;3.47;;
27744;SDS011;61387;48.112;8.616;2023-03-24T00:46:44;6.87;;;3.57;;
27744;SDS011;61387;48.112;8.616;2023-03-24T00:49:20;24.97;;;5.83;;
27744;SDS011;61387;48.112;8.616;2023-03-24T00:52:13;6.20;;;3.70;;
27744;SDS011;61387;48.112;8.616;2023-03-24T00:54:44;6.13;;;3.77;;
27744;SDS011;61387;48.112;8.616;2023-03-24T00:57:15;6.70;;;3.80;;
27744;SDS011;61387;48.112;8.616;2023-03-24T00:59:51;6.60;;;3.70;;
27744;SDS011;61387;48.112;8.616;2023-03-24T01:02:19;6.47;;;3.60;;
27744;SDS011;61387;48.112;8.616;2023-03-24T01:04:46;7.70;;;3.70;;
27744;SDS011;61387;48.112;8.616;2023-03-24T01:07:17;5.97;;;4.07;;
27744;SDS011;61387;48.112;8.616;2023-03-24T01:09:44;7.63;;;3.70;;
27744;SDS011;61387;48.112;8.616;2023-03-24T01:12:16;7.00;;;3.43;;
27744;SDS011;61387;48.112;8.616;2023-03-24T01:14:42;25.43;;;7.13;;
27744;SDS011;61387;48.112;8.616;2023-03-24T01:17:08;8.10;;;4.17;;
27744;SDS011;61387;48.112;8.616;2023-03-24T01:19:34;5.63;;;3.80;;
27744;SDS011;61387;48.112;8.616;2023-03-24T01:22:00;6.50;;;3.20;;
27744;SDS011;61387;48.112;8.616;2023-03-24T01:24:26;6.87;;;3.83;;
27744;SDS011;61387;48.112;8.616;2023-03-24T01:26:51;6.77;;;3.93;;
27744;SDS011;61387;48.112;8.616;2023-03-24T01:29:18;8.20;;;3.83;;
27744;SDS011;61387;48.112;8.616;2023-03-24T01:31:43;6.97;;;3.53;;
27744;SDS011;61387;48.112;8.616;2023-03-24T01:34:09;8.50;;;3.70;;
27744;SDS011;61387;48.112;8.616;2023-03-24T01:36:35;9.80;;;3.53;;
27744;SDS011;61387;48.112;8.616;2023-03-24T01:39:00;5.50;;;3.43;;
27744;SDS011;61387;48.112;8.616;2023-03-24T01:41:26;7.50;;;3.57;;
27744;SDS011;61387;48.112;8.616;2023-03-24T01:43:58;7.07;;;3.60;;
27744;SDS011;61387;48.112;8.616;2023-03-24T01:46:24;8.87;;;3.97;;
27744;SDS011;61387;48.112;8.616;2023-03-24T01:48:52;6.60;;;3.50;;
27744;SDS011;61387;48.112;8.616;2023-03-24T01:51:41;7.03;;;3.83;;
27744;SDS011;61387;48.112;8.616;2023-03-24T01:54:10;5.97;;;3.60;;
27744;SDS011;61387;48.112;8.616;2023-03-24T01:56:48;8.30;;;4.30;;
27744;SDS011;61387;48.112;8.616;2023-03-24T01:59:19;6.10;;;3.57;;
27744;SDS011;61387;48.112;8.616;2023-03-24T02:01:47;6.47;;;3.80;;
27744;SDS011;61387;48.112;8.616;2023-03-24T02:04:13;5.47;;;3.53;;
27744;SDS011;61387;48.112;8.616;2023-03-24T02:06:41;7.47;;;3.60;;
27744;SDS011;61387;48.112;8.616;2023-03-24T02:09:09;7.13;;;3.87;;
27744;SDS011;61387;48.112;8.616;2023-03-24T02:11:37;7.37;;;3.80;;
27744;SDS011;61387;48.112;8.616;2023-03-24T02:14:04;7.20;;;3.73;;
27744;SDS011;61387;48.112;8.616;2023-03-24T02:44:39;5.77;;;3.50;;
27744;SDS011;61387;48.112;8.616;2023-03-24T02:47:19;5.97;;;3.47;;
27744;SDS011;61387;48.112;8.616;2023-03-24T02:50:06;6.20;;;3.40;;
27744;SDS011;61387;48.112;8.616;2023-03-24T02:53:04;6.40;;;3.80;;
27744;SDS011;61387;48.112;8.616;2023-03-24T02:58:07;8.53;;;3.83;;
27744;SDS011;61387;48.112;8.616;2023-03-24T03:00:47;5.73;;;3.40;;
27744;SDS011;61387;48.112;8.616;2023-03-24T03:03:30;6.90;;;3.33;;
27744;SDS011;61387;48.112;8.616;2023-03-24T03:06:04;6.07;;;3.83;;
27744;SDS011;61387;48.112;8.616;2023-03-24T03:08:32;5.97;;;3.70;;
27744;SDS011;61387;48.112;8.616;2023-03-24T03:11:00;6.37;;;3.53;;
27744;SDS011;61387;48.112;8.616;2023-03-24T03:13:29;6.33;;;3.50;;
27744;SDS011;61387;48.112;8.616;2023-03-24T03:16:02;6.23;;;3.77;;
27744;SDS011;61387;48.112;8.616;2023-03-24T03:18:41;4.73;;;3.37;;
27744;SDS011;61387;48.112;8.616;2023-03-24T03:21:36;6.70;;;3.20;;
27744;SDS011;61387;48.112;8.616;2023-03-24T03:24:07;6.57;;;3.43;;
27744;SDS011;61387;48.112;8.616;2023-03-24T03:26:35;4.80;;;3.23;;
27744;SDS011;61387;48.112;8.616;2023-03-24T03:29:07;5.27;;;3.23;;
27744;SDS011;61387;48.112;8.616;2023-03-24T03:31:48;6.33;;;3.23;;
27744;SDS011;61387;48.112;8.616;2023-03-24T03:34:29;5.50;;;3.00;;
27744;SDS011;61387;48.112;8.616;2023-03-24T03:37:24;4.50;;;3.10;;
27744;SDS011;61387;48.112;8.616;2023-03-24T03:40:05;5.63;;;3.30;;
27744;SDS011;61387;48.112;8.616;2023-03-24T03:42:38;5.47;;;3.17;;
27744;SDS011;61387;48.112;8.616;2023-03-24T03:45:05;7.50;;;3.43;;
27744;SDS011;61387;48.112;8.616;2023-03-24T03:47:33;7.30;;;3.00;;
27744;SDS011;61387;48.112;8.616;2023-03-24T03:49:59;3.70;;;2.57;;
27744;SDS011;61387;48.112;8.616;2023-03-24T03:52:25;5.13;;;2.70;;
27744;SDS011;61387;48.112;8.616;2023-03-24T03:54:50;6.20;;;2.95;;
27744;SDS011;61387;48.112;8.616;2023-03-24T03:57:17;5.37;;;2.83;;
27744;SDS011;61387;48.112;8.616;2023-03-24T03:59:44;4.47;;;2.60;;
27744;SDS011;61387;48.112;8.616;2023-03-24T04:02:33;5.57;;;2.40;;
27744;SDS011;61387;48.112;8.616;2023-03-24T04:08:10;6.47;;;2.90;;
27744;SDS011;61387;48.112;8.616;2023-03-24T04:16:14;5.27;;;2.80;;
27744;SDS011;61387;48.112;8.616;2023-03-24T04:21:45;4.27;;;2.70;;
27744;SDS011;61387;48.112;8.616;2023-03-24T04:32:32;4.47;;;2.60;;
27744;SDS011;61387;48.112;8.616;2023-03-24T04:35:22;4.80;;;2.60;;
27744;SDS011;61387;48.112;8.616;2023-03-24T04:37:56;4.70;;;2.47;;
27744;SDS011;61387;48.112;8.616;2023-03-24T04:40:26;4.17;;;2.80;;
27744;SDS011;61387;48.112;8.616;2023-03-24T04:42:56;4.30;;;2.80;;
27744;SDS011;61387;48.112;8.616;2023-03-24T04:45:23;3.37;;;2.53;;
27744;SDS011;61387;48.112;8.616;2023-03-24T04:47:51;3.60;;;2.57;;
27744;SDS011;61387;48.112;8.616;2023-03-24T04:50:37;3.83;;;2.60;;
27744;SDS011;61387;48.112;8.616;2023-03-24T04:53:04;6.03;;;2.83;;
27744;SDS011;61387;48.112;8.616;2023-03-24T04:58:15;5.27;;;2.70;;
27744;SDS011;61387;48.112;8.616;2023-03-24T05:00:41;5.77;;;3.23;;
27744;SDS011;61387;48.112;8.616;2023-03-24T05:03:08;5.10;;;3.17;;
27744;SDS011;61387;48.112;8.616;2023-03-24T05:05:38;4.77;;;2.87;;
27744;SDS011;61387;48.112;8.616;2023-03-24T05:08:04;7.50;;;3.00;;
27744;SDS011;61387;48.112;8.616;2023-03-24T05:10:30;6.97;;;3.60;;
27744;SDS011;61387;48.112;8.616;2023-03-24T05:12:55;6.67;;;3.70;;
27744;SDS011;61387;48.112;8.616;2023-03-24T05:15:21;7.60;;;3.93;;
27744;SDS011;61387;48.112;8.616;2023-03-24T05:17:46;6.47;;;3.67;;
27744;SDS011;61387;48.112;8.616;2023-03-24T05:20:12;7.20;;;3.53;;
27744;SDS011;61387;48.112;8.616;2023-03-24T05:22:39;6.53;;;3.27;;
27744;SDS011;61387;48.112;8.616;2023-03-24T05:25:04;5.90;;;3.90;;
27744;SDS011;61387;48.112;8.616;2023-03-24T05:27:31;6.90;;;4.10;;
27744;SDS011;61387;48.112;8.616;2023-03-24T05:29:57;6.40;;;3.50;;
27744;SDS011;61387;48.112;8.616;2023-03-24T05:32:23;6.43;;;3.77;;
27744;SDS011;61387;48.112;8.616;2023-03-24T05:34:49;9.50;;;3.97;;
27744;SDS011;61387;48.112;8.616;2023-03-24T05:37:15;8.33;;;4.37;;
27744;SDS011;61387;48.112;8.616;2023-03-24T05:39:42;7.50;;;4.23;;
27744;SDS011;61387;48.112;8.616;2023-03-24T05:42:08;13.70;;;5.13;;
27744;SDS011;61387;48.112;8.616;2023-03-24T05:44:34;8.70;;;4.87;;
27744;SDS011;61387;48.112;8.616;2023-03-24T05:47:00;15.17;;;8.33;;
27744;SDS011;61387;48.112;8.616;2023-03-24T05:49:25;9.00;;;4.93;;
27744;SDS011;61387;48.112;8.616;2023-03-24T05:51:51;12.60;;;5.93;;
27744;SDS011;61387;48.112;8.616;2023-03-24T05:54:17;10.80;;;6.47;;
27744;SDS011;61387;48.112;8.616;2023-03-24T05:56:42;8.47;;;5.30;;
27744;SDS011;61387;48.112;8.616;2023-03-24T05:59:08;9.40;;;4.50;;
27744;SDS011;61387;48.112;8.616;2023-03-24T06:01:35;5.90;;;4.20;;
27744;SDS011;61387;48.112;8.616;2023-03-24T06:04:01;7.00;;;4.87;;
27744;SDS011;61387;48.112;8.616;2023-03-24T06:06:26;7.57;;;4.80;;
27744;SDS011;61387;48.112;8.616;2023-03-24T06:08:52;12.90;;;8.60;;
27744;SDS011;61387;48.112;8.616;2023-03-24T06:11:22;9.57;;;5.77;;
27744;SDS011;61387;48.112;8.616;2023-03-24T06:13:48;12.90;;;5.60;;
27744;SDS011;61387;48.112;8.616;2023-03-24T06:16:14;8.47;;;4.70;;
27744;SDS011;61387;48.112;8.616;2023-03-24T06:18:42;10.57;;;5.53;;
27744;SDS011;61387;48.112;8.616;2023-03-24T06:21:16;9.27;;;5.20;;
27744;SDS011;61387;48.112;8.616;2023-03-24T06:23:42;10.57;;;6.37;;
27744;SDS011;61387;48.112;8.616;2023-03-24T06:26:09;14.13;;;6.70;;
27744;SDS011;61387;48.112;8.616;2023-03-24T06:28:35;14.53;;;5.60;;
27744;SDS011;61387;48.112;8.616;2023-03-24T06:31:03;12.20;;;5.77;;
27744;SDS011;61387;48.112;8.616;2023-03-24T06:33:29;9.57;;;5.27;;
27744;SDS011;61387;48.112;8.616;2023-03-24T06:35:55;8.23;;;4.77;;
27744;SDS011;61387;48.112;8.616;2023-03-24T06:38:20;12.07;;;5.83;;
27744;SDS011;61387;48.112;8.616;2023-03-24T06:40:46;10.07;;;5.90;;
27744;SDS011;61387;48.112;8.616;2023-03-24T06:43:12;9.23;;;5.73;;
27744;SDS011;61387;48.112;8.616;2023-03-24T06:45:37;8.00;;;4.83;;
27744;SDS011;61387;48.112;8.616;2023-03-24T06:48:04;7.30;;;4.23;;
27744;SDS011;61387;48.112;8.616;2023-03-24T06:50:30;7.80;;;4.13;;
27744;SDS011;61387;48.112;8.616;2023-03-24T06:53:00;9.50;;;4.87;;
27744;SDS011;61387;48.112;8.616;2023-03-24T06:55:25;10.77;;;4.80;;
27744;SDS011;61387;48.112;8.616;2023-03-24T06:57:51;10.50;;;5.20;;
27744;SDS011;61387;48.112;8.616;2023-03-24T07:00:17;19.03;;;9.83;;
27744;SDS011;61387;48.112;8.616;2023-03-24T07:02:43;18.87;;;9.93;;
27744;SDS011;61387;48.112;8.616;2023-03-24T07:05:09;11.83;;;7.23;;
27744;SDS011;61387;48.112;8.616;2023-03-24T07:07:36;13.70;;;7.83;;
27744;SDS011;61387;48.112;8.616;2023-03-24T07:10:03;14.83;;;7.70;;
27744;SDS011;61387;48.112;8.616;2023-03-24T07:12:29;14.93;;;8.33;;
27744;SDS011;61387;48.112;8.616;2023-03-24T07:14:56;14.57;;;7.13;;
27744;SDS011;61387;48.112;8.616;2023-03-24T07:17:22;11.97;;;5.80;;
27744;SDS011;61387;48.112;8.616;2023-03-24T07:19:48;7.70;;;5.00;;
27744;SDS011;61387;48.112;8.616;2023-03-24T07:22:13;6.73;;;4.57;;
27744;SDS011;61387;48.112;8.616;2023-03-24T07:24:39;6.60;;;3.73;;
27744;SDS011;61387;48.112;8.616;2023-03-24T07:27:04;7.90;;;4.57;;
27744;SDS011;61387;48.112;8.616;2023-03-24T07:29:30;7.80;;;4.33;;
27744;SDS011;61387;48.112;8.616;2023-03-24T07:31:57;7.63;;;4.10;;
27744;SDS011;61387;48.112;8.616;2023-03-24T07:34:23;9.67;;;4.40;;
27744;SDS011;61387;48.112;8.616;2023-03-24T07:36:50;8.37;;;4.07;;
27744;SDS011;61387;48.112;8.616;2023-03-24T07:39:16;9.37;;;4.60;;
27744;SDS011;61387;48.112;8.616;2023-03-24T07:41:41;6.93;;;4.00;;
27744;SDS011;61387;48.112;8.616;2023-03-24T07:44:07;7.00;;;4.35;;
27744;SDS011;61387;48.112;8.616;2023-03-24T07:46:33;7.23;;;4.27;;
27744;SDS011;61387;48.112;8.616;2023-03-24T07:48:59;7.50;;;4.30;;
27744;SDS011;61387;48.112;8.616;2023-03-24T07:51:26;7.90;;;4.27;;
27744;SDS011;61387;48.112;8.616;2023-03-24T07:53:52;7.50;;;4.53;;
27744;SDS011;61387;48.112;8.616;2023-03-24T07:56:17;7.67;;;4.50;;
27744;SDS011;61387;48.112;8.616;2023-03-24T07:58:43;7.80;;;4.20;;
27744;SDS011;61387;48.112;8.616;2023-03-24T08:01:09;7.70;;;4.28;;
27744;SDS011;61387;48.112;8.616;2023-03-24T08:03:35;9.73;;;4.90;;
27744;SDS011;61387;48.112;8.616;2023-03-24T08:06:02;10.70;;;4.70;;
27744;SDS011;61387;48.112;8.616;2023-03-24T08:08:29;7.97;;;4.60;;
27744;SDS011;61387;48.112;8.616;2023-03-24T08:10:55;5.93;;;4.33;;
27744;SDS011;61387;48.112;8.616;2023-03-24T08:13:21;8.90;;;4.73;;
27744;SDS011;61387;48.112;8.616;2023-03-24T08:15:47;7.10;;;4.03;;
27744;SDS011;61387;48.112;8.616;2023-03-24T08:18:12;8.73;;;4.60;;
27744;SDS011;61387;48.112;8.616;2023-03-24T08:20:39;8.87;;;4.00;;
27744;SDS011;61387;48.112;8.616;2023-03-24T08:23:05;7.60;;;4.13;;
27744;SDS011;61387;48.112;8.616;2023-03-24T08:25:32;8.77;;;3.43;;
27744;SDS011;61387;48.112;8.616;2023-03-24T08:28:00;10.47;;;4.00;;
27744;SDS011;61387;48.112;8.616;2023-03-24T08:30:26;4.90;;;2.57;;
27744;SDS011;61387;48.112;8.616;2023-03-24T08:32:59;4.03;;;2.53;;
27744;SDS011;61387;48.112;8.616;2023-03-24T08:35:32;4.90;;;2.50;;
27744;SDS011;61387;48.112;8.616;2023-03-24T08:38:02;5.97;;;3.10;;
27744;SDS011;61387;48.112;8.616;2023-03-24T08:40:29;4.50;;;2.53;;
27744;SDS011;61387;48.112;8.616;2023-03-24T08:42:56;7.17;;;3.13;;
27744;SDS011;61387;48.112;8.616;2023-03-24T08:45:25;5.73;;;3.27;;
27744;SDS011;61387;48.112;8.616;2023-03-24T08:47:52;3.00;;;2.00;;
27744;SDS011;61387;48.112;8.616;2023-03-24T08:50:20;2.77;;;1.50;;
27744;SDS011;61387;48.112;8.616;2023-03-24T08:52:48;1.90;;;1.30;;
27744;SDS011;61387;48.112;8.616;2023-03-24T08:55:14;2.27;;;1.33;;
27744;SDS011;61387;48.112;8.616;2023-03-24T08:57:41;2.80;;;1.10;;
27744;SDS011;61387;48.112;8.616;2023-03-24T09:00:07;3.90;;;1.30;;
27744;SDS011;61387;48.112;8.616;2023-03-24T09:02:40;2.90;;;2.37;;
27744;SDS011;61387;48.112;8.616;2023-03-24T09:05:12;3.60;;;2.30;;
27744;SDS011;61387;48.112;8.616;2023-03-24T09:07:39;2.77;;;1.90;;
27744;SDS011;61387;48.112;8.616;2023-03-24T09:10:05;2.30;;;1.47;;
27744;SDS011;61387;48.112;8.616;2023-03-24T09:12:32;1.87;;;1.40;;
27744;SDS011;61387;48.112;8.616;2023-03-24T09:14:58;1.50;;;1.30;;
27744;SDS011;61387;48.112;8.616;2023-03-24T09:17:24;2.90;;;1.47;;
27744;SDS011;61387;48.112;8.616;2023-03-24T09:19:49;1.70;;;1.30;;
27744;SDS011;61387;48.112;8.616;2023-03-24T09:22:15;3.03;;;1.80;;
27744;SDS011;61387;48.112;8.616;2023-03-24T09:24:41;3.00;;;1.60;;
27744;SDS011;61387;48.112;8.616;2023-03-24T09:27:08;3.83;;;1.80;;
27744;SDS011;61387;48.112;8.616;2023-03-24T09:29:34;3.67;;;2.17;;
27744;SDS011;61387;48.112;8.616;2023-03-24T09:32:00;3.97;;;2.13;;
27744;SDS011;61387;48.112;8.616;2023-03-24T09:34:26;3.78;;;1.90;;
27744;SDS011;61387;48.112;8.616;2023-03-24T09:36:52;4.03;;;2.50;;
27744;SDS011;61387;48.112;8.616;2023-03-24T09:39:17;2.28;;;1.80;;
27744;SDS011;61387;48.112;8.616;2023-03-24T09:41:43;2.93;;;1.70;;
27744;SDS011;61387;48.112;8.616;2023-03-24T09:47:15;7.50;;;2.30;;
27744;SDS011;61387;48.112;8.616;2023-03-24T09:50:01;3.63;;;2.50;;
27744;SDS011;61387;48.112;8.616;2023-03-24T09:52:33;3.17;;;1.73;;
27744;SDS011;61387;48.112;8.616;2023-03-24T09:55:02;2.13;;;1.83;;
27744;SDS011;61387;48.112;8.616;2023-03-24T09:57:38;2.40;;;1.10;;
27744;SDS011;61387;48.112;8.616;2023-03-24T10:02:49;2.40;;;0.80;;
27744;SDS011;61387;48.112;8.616;2023-03-24T10:05:20;3.77;;;2.10;;
27744;SDS011;61387;48.112;8.616;2023-03-24T10:13:05;2.43;;;1.20;;
27744;SDS011;61387;48.112;8.616;2023-03-24T10:16:11;1.73;;;1.00;;
27744;SDS011;61387;48.112;8.616;2023-03-24T10:18:44;1.20;;;1.00;;
27744;SDS011;61387;48.112;8.616;2023-03-24T10:21:22;1.50;;;1.10;;
27744;SDS011;61387;48.112;8.616;2023-03-24T10:29:24;2.03;;;1.30;;
27744;SDS011;61387;48.112;8.616;2023-03-24T10:34:44;9.70;;;4.63;;
27744;SDS011;61387;48.112;8.616;2023-03-24T10:37:22;2.93;;;1.30;;
27744;SDS011;61387;48.112;8.616;2023-03-24T10:39:48;3.17;;;1.45;;
27744;SDS011;61387;48.112;8.616;2023-03-24T10:42:16;3.00;;;1.70;;
27744;SDS011;61387;48.112;8.616;2023-03-24T10:44:46;2.67;;;1.40;;
27744;SDS011;61387;48.112;8.616;2023-03-24T10:47:13;6.50;;;4.17;;
27744;SDS011;61387;48.112;8.616;2023-03-24T10:49:52;5.03;;;1.67;;
27744;SDS011;61387;48.112;8.616;2023-03-24T10:52:20;7.27;;;1.63;;
27744;SDS011;61387;48.112;8.616;2023-03-24T10:54:55;3.83;;;1.83;;
27744;SDS011;61387;48.112;8.616;2023-03-24T10:57:23;2.07;;;1.20;;
27744;SDS011;61387;48.112;8.616;2023-03-24T11:00:00;0.93;;;0.80;;
27744;SDS011;61387;48.112;8.616;2023-03-24T11:02:41;1.30;;;0.90;;
27744;SDS011;61387;48.112;8.616;2023-03-24T11:07:41;1.80;;;1.10;;
27744;SDS011;61387;48.112;8.616;2023-03-24T11:12:39;1.60;;;1.27;;
27744;SDS011;61387;48.112;8.616;2023-03-24T11:15:29;2.63;;;1.37;;
27744;SDS011;61387;48.112;8.616;2023-03-24T11:18:00;3.03;;;1.47;;
27744;SDS011;61387;48.112;8.616;2023-03-24T11:20:40;3.03;;;1.60;;
27744;SDS011;61387;48.112;8.616;2023-03-24T11:26:08;3.27;;;1.50;;
27744;SDS011;61387;48.112;8.616;2023-03-24T11:28:39;5.03;;;2.23;;
27744;SDS011;61387;48.112;8.616;2023-03-24T11:31:29;4.37;;;1.80;;
27744;SDS011;61387;48.112;8.616;2023-03-24T11:33:58;5.13;;;2.77;;
27744;SDS011;61387;48.112;8.616;2023-03-24T11:39:00;4.97;;;2.63;;
27744;SDS011;61387;48.112;8.616;2023-03-24T11:41:35;3.17;;;1.80;;
27744;SDS011;61387;48.112;8.616;2023-03-24T11:46:52;3.93;;;1.63;;
27744;SDS011;61387;48.112;8.616;2023-03-24T11:49:22;3.27;;;1.70;;
27744;SDS011;61387;48.112;8.616;2023-03-24T11:51:56;3.60;;;1.63;;
27744;SDS011;61387;48.112;8.616;2023-03-24T11:54:27;4.20;;;1.27;;
27744;SDS011;61387;48.112;8.616;2023-03-24T11:56:57;3.17;;;1.10;;
27744;SDS011;61387;48.112;8.616;2023-03-24T12:02:17;2.80;;;1.60;;
27744;SDS011;61387;48.112;8.616;2023-03-24T12:04:55;2.30;;;1.40;;
27744;SDS011;61387;48.112;8.616;2023-03-24T12:13:25;2.40;;;1.30;;
27744;SDS011;61387;48.112;8.616;2023-03-24T12:26:27;3.83;;;1.93;;
27744;SDS011;61387;48.112;8.616;2023-03-24T12:29:09;2.43;;;1.23;;
27744;SDS011;61387;48.112;8.616;2023-03-24T12:35:08;2.03;;;0.90;;
27744;SDS011;61387;48.112;8.616;2023-03-24T12:37:50;2.00;;;1.03;;
27744;SDS011;61387;48.112;8.616;2023-03-24T12:40:36;1.87;;;0.70;;
27744;SDS011;61387;48.112;8.616;2023-03-24T12:45:53;3.67;;;1.70;;
27744;SDS011;61387;48.112;8.616;2023-03-24T12:48:32;2.10;;;1.40;;
27744;SDS011;61387;48.112;8.616;2023-03-24T12:51:22;1.83;;;1.17;;
27744;SDS011;61387;48.112;8.616;2023-03-24T12:54:02;3.20;;;1.57;;
27744;SDS011;61387;48.112;8.616;2023-03-24T12:56:36;4.63;;;2.40;;
27744;SDS011;61387;48.112;8.616;2023-03-24T12:59:10;7.90;;;6.13;;
27744;SDS011;61387;48.112;8.616;2023-03-24T13:01:41;7.83;;;5.23;;
27744;SDS011;61387;48.112;8.616;2023-03-24T13:04:12;4.33;;;2.30;;
27744;SDS011;61387;48.112;8.616;2023-03-24T13:12:24;3.53;;;2.57;;
27744;SDS011;61387;48.112;8.616;2023-03-24T13:15:02;2.20;;;1.43;;
27744;SDS011;61387;48.112;8.616;2023-03-24T13:17:38;3.60;;;2.20;;
27744;SDS011;61387;48.112;8.616;2023-03-24T13:20:12;4.07;;;2.03;;
27744;SDS011;61387;48.112;8.616;2023-03-24T13:22:43;2.17;;;1.33;;
27744;SDS011;61387;48.112;8.616;2023-03-24T13:25:19;3.03;;;1.50;;
27744;SDS011;61387;48.112;8.616;2023-03-24T13:28:02;5.63;;;3.17;;
27744;SDS011;61387;48.112;8.616;2023-03-24T13:30:34;2.33;;;1.33;;
27744;SDS011;61387;48.112;8.616;2023-03-24T13:33:11;1.90;;;0.77;;
27744;SDS011;61387;48.112;8.616;2023-03-24T13:38:18;2.00;;;0.83;;
27744;SDS011;61387;48.112;8.616;2023-03-24T13:40:50;3.83;;;1.93;;
27744;SDS011;61387;48.112;8.616;2023-03-24T13:43:18;5.37;;;1.40;;
27744;SDS011;61387;48.112;8.616;2023-03-24T13:45:51;10.30;;;5.77;;
27744;SDS011;61387;48.112;8.616;2023-03-24T13:51:03;3.00;;;1.20;;
27744;SDS011;61387;48.112;8.616;2023-03-24T13:53:38;4.03;;;1.27;;
27744;SDS011;61387;48.112;8.616;2023-03-24T13:59:18;8.03;;;5.10;;
27744;SDS011;61387;48.112;8.616;2023-03-24T14:12:52;1.80;;;0.97;;
27744;SDS011;61387;48.112;8.616;2023-03-24T14:15:28;3.40;;;2.10;;
27744;SDS011;61387;48.112;8.616;2023-03-24T14:21:00;0.80;;;0.37;;
27744;SDS011;61387;48.112;8.616;2023-03-24T14:23:43;2.60;;;0.60;;
27744;SDS011;61387;48.112;8.616;2023-03-24T14:28:44;3.03;;;1.53;;
27744;SDS011;61387;48.112;8.616;2023-03-24T14:36:17;10.20;;;5.67;;
27744;SDS011;61387;48.112;8.616;2023-03-24T14:38:50;11.97;;;6.07;;
27744;SDS011;61387;48.112;8.616;2023-03-24T14:41:25;3.77;;;1.70;;
27744;SDS011;61387;48.112;8.616;2023-03-24T14:43:57;1.53;;;0.60;;
27744;SDS011;61387;48.112;8.616;2023-03-24T14:54:39;1.57;;;1.03;;
27744;SDS011;61387;48.112;8.616;2023-03-24T14:57:58;2.90;;;1.53;;
27744;SDS011;61387;48.112;8.616;2023-03-24T15:00:15;3.50;;;1.50;;
27744;SDS011;61387;48.112;8.616;2023-03-24T15:02:52;2.77;;;1.17;;
27744;SDS011;61387;48.112;8.616;2023-03-24T15:10:56;2.70;;;1.60;;
27744;SDS011;61387;48.112;8.616;2023-03-24T15:13:36;3.27;;;1.20;;
27744;SDS011;61387;48.112;8.616;2023-03-24T15:18:45;3.07;;;0.90;;
27744;SDS011;61387;48.112;8.616;2023-03-24T15:21:13;2.87;;;1.30;;
27744;SDS011;61387;48.112;8.616;2023-03-24T15:23:43;2.63;;;1.73;;
27744;SDS011;61387;48.112;8.616;2023-03-24T15:26:12;2.23;;;1.53;;
27744;SDS011;61387;48.112;8.616;2023-03-24T15:28:38;3.13;;;1.20;;
27744;SDS011;61387;48.112;8.616;2023-03-24T15:31:03;2.60;;;1.10;;
27744;SDS011;61387;48.112;8.616;2023-03-24T15:33:29;3.67;;;1.50;;
27744;SDS011;61387;48.112;8.616;2023-03-24T15:36:19;3.17;;;1.60;;
27744;SDS011;61387;48.112;8.616;2023-03-24T15:38:47;3.70;;;1.50;;
27744;SDS011;61387;48.112;8.616;2023-03-24T15:41:16;2.23;;;1.33;;
27744;SDS011;61387;48.112;8.616;2023-03-24T15:43:44;3.77;;;1.47;;
27744;SDS011;61387;48.112;8.616;2023-03-24T15:46:21;3.90;;;2.00;;
27744;SDS011;61387;48.112;8.616;2023-03-24T15:48:50;4.60;;;1.87;;
27744;SDS011;61387;48.112;8.616;2023-03-24T15:51:16;5.07;;;1.80;;
27744;SDS011;61387;48.112;8.616;2023-03-24T15:53:55;2.30;;;1.10;;
27744;SDS011;61387;48.112;8.616;2023-03-24T16:01:35;3.23;;;1.60;;
27744;SDS011;61387;48.112;8.616;2023-03-24T16:04:06;2.73;;;1.43;;
27744;SDS011;61387;48.112;8.616;2023-03-24T16:06:41;3.63;;;2.10;;
27744;SDS011;61387;48.112;8.616;2023-03-24T16:09:13;4.60;;;2.20;;
27744;SDS011;61387;48.112;8.616;2023-03-24T16:11:40;8.73;;;5.07;;
27744;SDS011;61387;48.112;8.616;2023-03-24T16:14:25;2.53;;;1.73;;
27744;SDS011;61387;48.112;8.616;2023-03-24T16:16:54;2.93;;;1.87;;
27744;SDS011;61387;48.112;8.616;2023-03-24T16:19:24;6.47;;;2.90;;
27744;SDS011;61387;48.112;8.616;2023-03-24T16:21:50;1.47;;;1.27;;
27744;SDS011;61387;48.112;8.616;2023-03-24T16:24:16;4.53;;;2.62;;
27744;SDS011;61387;48.112;8.616;2023-03-24T16:26:42;3.00;;;1.63;;
27744;SDS011;61387;48.112;8.616;2023-03-24T16:29:17;2.47;;;1.10;;
27744;SDS011;61387;48.112;8.616;2023-03-24T16:31:46;1.57;;;1.30;;
27744;SDS011;61387;48.112;8.616;2023-03-24T16:34:13;10.10;;;6.33;;
27744;SDS011;61387;48.112;8.616;2023-03-24T16:36:40;4.37;;;2.63;;
27744;SDS011;61387;48.112;8.616;2023-03-24T16:39:09;3.23;;;2.07;;
27744;SDS011;61387;48.112;8.616;2023-03-24T16:41:40;3.37;;;2.10;;
27744;SDS011;61387;48.112;8.616;2023-03-24T16:44:06;3.53;;;2.43;;
27744;SDS011;61387;48.112;8.616;2023-03-24T16:46:32;4.80;;;3.00;;
27744;SDS011;61387;48.112;8.616;2023-03-24T16:48:58;7.10;;;3.70;;
27744;SDS011;61387;48.112;8.616;2023-03-24T16:51:25;4.07;;;2.40;;
27744;SDS011;61387;48.112;8.616;2023-03-24T16:53:51;7.37;;;4.37;;
27744;SDS011;61387;48.112;8.616;2023-03-24T16:56:17;11.50;;;6.33;;
27744;SDS011;61387;48.112;8.616;2023-03-24T16:58:45;4.50;;;2.67;;
27744;SDS011;61387;48.112;8.616;2023-03-24T17:01:33;3.63;;;2.20;;
27744;SDS011;61387;48.112;8.616;2023-03-24T17:04:01;4.07;;;2.30;;
27744;SDS011;61387;48.112;8.616;2023-03-24T17:06:29;3.30;;;2.17;;
27744;SDS011;61387;48.112;8.616;2023-03-24T17:08:56;12.70;;;5.10;;
27744;SDS011;61387;48.112;8.616;2023-03-24T17:11:30;23.83;;;8.70;;
27744;SDS011;61387;48.112;8.616;2023-03-24T17:13:58;9.80;;;3.63;;
27744;SDS011;61387;48.112;8.616;2023-03-24T17:16:28;3.60;;;2.20;;
27744;SDS011;61387;48.112;8.616;2023-03-24T17:18:54;2.37;;;1.47;;
27744;SDS011;61387;48.112;8.616;2023-03-24T17:21:20;1.70;;;1.30;;
27744;SDS011;61387;48.112;8.616;2023-03-24T17:23:46;3.10;;;1.60;;
27744;SDS011;61387;48.112;8.616;2023-03-24T17:26:13;3.17;;;1.77;;
27744;SDS011;61387;48.112;8.616;2023-03-24T17:28:40;2.80;;;1.90;;
27744;SDS011;61387;48.112;8.616;2023-03-24T17:31:06;3.47;;;1.90;;
27744;SDS011;61387;48.112;8.616;2023-03-24T17:33:31;2.28;;;1.70;;
27744;SDS011;61387;48.112;8.616;2023-03-24T17:35:57;4.60;;;2.10;;
27744;SDS011;61387;48.112;8.616;2023-03-24T17:38:23;2.20;;;1.20;;
27744;SDS011;61387;48.112;8.616;2023-03-24T17:40:56;3.43;;;2.10;;
27744;SDS011;61387;48.112;8.616;2023-03-24T17:43:23;2.23;;;1.40;;
27744;SDS011;61387;48.112;8.616;2023-03-24T17:45:48;3.40;;;1.90;;
27744;SDS011;61387;48.112;8.616;2023-03-24T17:48:14;3.53;;;1.77;;
27744;SDS011;61387;48.112;8.616;2023-03-24T17:50:40;5.23;;;1.77;;